44TX weather

White Oak Airport
Fredericksburg, Texas, United States

Public forecast

Using degrees Fahrenheit for public forecast. Weather courtesy of forecast.io.

Closest aviation weather report (METAR) to White Oak Airport

Closest report is Gillespie County Airport, 9.8 nm (18.2 km) ENE. Retrieved 2019/10/13 21:35 UTC (11 minutes ago):

KT82 132135Z AUTO 20008KT 10SM CLR 25/11 A2998 RMK AO2 T02460112

Closest aviation forecast (TAF) to White Oak Airport

Closest forecast is Kimble County Airport, 39.1 nm (72.4 km) WNW. Retrieved 2019/10/13 18:30 UTC (3 hours ago):

TAF KJCT 131726Z 1318/1418 21010KT P6SM BKN250 FM140200 VRB05KT P6SM SCT090 BKN250